Terminal Aerodrome Forecast
Issued by NWS

Home | Current Version | Previous Version | Text Only | Print | Product List | Glossary On
Versions: 1 2 3 4 5 6 7 8 9 10 11 12 13 14 15 16 17 18 19 20 21 22
045
FTUS43 KAPX 110520
TAFAPN
TAF
KAPN 110520Z 1106/1206 32007KT P6SM BKN035
     FM112000 30007KT P6SM VCSH BKN035
     FM120000 27008KT 6SM -SHSN BKN035=

USA.gov is the U.S. government's official web portal to all federal, state and local government web resources and services.